Charlotte, NC

8:27 PM EDT on August 21, 2014 (GMT -0400)
ZandyWx | Change Station
CLOSE
Current Station
Personal Weather Station
Location: Charlotte, NC
Elevation: 803 ft
Nearby Weather Stations

Elev 803 ft 35.37 °N, 80.81 °W | Updated 498 days ago

Thunderstorm
Thunderstorm
80 °F
Feels Like 80 °F
N
2
Wind Variable Wind from WSW
Gusts 3 mph

Today
High -- | Low -- °F
--% Chance of Precip.
Yesterday
High -- | Low -- °F
Precip. -- in
6:47 AM 8:04 PM
Waning Crescent, 11% visible
Pressure 30.11 in
Visibility 10.0 miles
Clouds Clear
Dew Point 67 °F
Humidity 62%
Rainfall 0.00 in
Snow Depth Not available.
UV 0 out of 12
Pollen 9.00 out of 12
Ozone Moderate
PM2.5 Moderate
Flu Activity Not available.
METAR KJQF 212355Z 00000KT 10SM CLR 28/20 A3011

More Conditions Fewer Conditions

Pressure 30.11 in
Visibility 10.0 miles
Clouds Clear
Dew Point 67 °F
Humidity 62%
Rainfall 0.00 in
Snow Depth Not available.
UV 0 out of 12
Pollen 9.00 out of 12
Ozone Moderate
PM2.5 Moderate
Flu Activity Not available.
METAR KJQF 212355Z 00000KT 10SM CLR 28/20 A3011

More Conditions Fewer Conditions

10-Day Weather Forecast

Almanac

Astronomy

Aug. 21, 2014 Rise Set
Actual Time 6:47 AM EDT 8:04 PM EDT
Civil Twilight 6:20 AM EDT 8:31 PM EDT
Nautical Twilight 5:48 AM EDT 9:02 PM EDT
Astronomical Twilight 5:15 AM EDT 9:35 PM EDT
Moon 3:19 AM EDT (8/21) 5:29 PM EDT (8/21)
Length of Visible Light 14h 10m
Length of Day
13h 17m
Tomorrow will be 2m 1s shorter.
Waning Crescent, 11% of the Moon is Illuminated
Today
Waning Crescent
Aug 25
New
Sep 2
First Quarter
Sep 8
Full
Sep 15
Last Quarter

Today's Extremes

State Highs State Lows

Community

WunderPhotos

Upload Photos

1,746,075 photos uploaded!

Nearby

Air Quality

  Air Quality AQ Index Pollutant
Yesterday Moderate
OZONE
Yesterday Good
PM2.5
Current Moderate
OZONE
Current Moderate
PM2.5
Thursday Moderate
OZONE
Thursday Moderate
PM2.5
Friday Moderate
OZONE
Friday Good
PM2.5
Saturday Good
OZONE
Saturday Good
PM2.5
Sunday Good
OZONE
Sunday Good
PM2.5

Snow Depth

Station Depth Elevation
No new snow has been reported.

Earthquake Activity

City Distance Mag. Time & Date
No recent earthquake activity has been reported nearby.
Minimum magnitude displayed is 2.5.

Coastal Water Temperatures

Place Temperature
No Stations Reporting

Nearby Weather Stations